createdAt,value
2024-02-08T00:00:10.699Z,97306.16
2024-02-08T00:01:13.223Z,97311.28
2024-02-08T00:02:15.699Z,97313.44
2024-02-08T00:03:18.378Z,97316.13
2024-02-08T00:04:20.675Z,97306.97
2024-02-08T00:05:23.009Z,97315.34
2024-02-08T00:06:25.497Z,97303.78
2024-02-08T00:07:27.858Z,97312.16
2024-02-08T00:08:30.150Z,97306.78
2024-02-08T00:09:32.432Z,97311.06
2024-02-08T00:10:34.770Z,97307.88
2024-02-08T00:11:37.058Z,97310.56
2024-02-08T00:12:40.379Z,97310.25
2024-02-08T00:13:42.668Z,97311.38
2024-02-08T00:14:45.186Z,97304.72
2024-02-08T00:15:47.446Z,97310.56
2024-02-08T00:16:49.736Z,97302.50
2024-02-08T00:17:52.469Z,97307.88
2024-02-08T00:18:57.561Z,97305.50
2024-02-08T00:20:00.021Z,97302.81
2024-02-08T00:21:02.329Z,97306.59
2024-02-08T00:22:04.661Z,97300.13
2024-02-08T00:23:09.396Z,97310.88
2024-02-08T00:24:11.778Z,97300.91
2024-02-08T00:25:14.276Z,97303.91
2024-02-08T00:26:18.548Z,97301.22
2024-02-08T00:27:20.846Z,97301.22
2024-02-08T00:28:23.423Z,97293.16
2024-02-08T00:29:26.902Z,97292.66
2024-02-08T00:30:29.224Z,97299.63
2024-02-08T00:31:31.491Z,97289.69
2024-02-08T00:32:33.780Z,97296.16
2024-02-08T00:33:36.051Z,97295.34
2024-02-08T00:34:39.955Z,97300.72
2024-02-08T00:35:42.481Z,97296.97
2024-02-08T00:36:44.888Z,97298.03
2024-02-08T00:37:51.073Z,97298.03
2024-02-08T00:38:53.620Z,97286.78
2024-02-08T00:39:55.917Z,97287.09
2024-02-08T00:40:58.270Z,97287.59
2024-02-08T00:42:00.616Z,97283.31
2024-02-08T00:43:07.284Z,97286.78
2024-02-08T00:44:11.244Z,97281.41
2024-02-08T00:45:19.713Z,97279.81
2024-02-08T00:46:22.471Z,97286.00
2024-02-08T00:47:28.283Z,97279.03
2024-02-08T00:48:30.864Z,97276.34
2024-02-08T00:49:33.135Z,97278.72
2024-02-08T00:50:35.930Z,97276.34
2024-02-08T00:51:38.365Z,97272.88
2024-02-08T00:52:42.222Z,97283.31
2024-02-08T00:53:44.607Z,97273.97
2024-02-08T00:54:46.922Z,97278.25
2024-02-08T00:55:50.298Z,97282.03
2024-02-08T00:56:54.416Z,97276.34
2024-02-08T00:57:56.824Z,97277.75
2024-02-08T00:58:59.151Z,97286.59
2024-02-08T01:00:02.751Z,97283.91
2024-02-08T01:01:08.773Z,97281.53
2024-02-08T01:02:11.326Z,97286.91
2024-02-08T01:03:15.032Z,97278.06
2024-02-08T01:04:22.429Z,97291.50
2024-02-08T01:05:24.904Z,97285.31
2024-02-08T01:06:27.817Z,97288.00
2024-02-08T01:07:33.321Z,97288.00
2024-02-08T01:08:35.696Z,97289.59
2024-02-08T01:09:38.070Z,97281.84
2024-02-08T01:10:40.812Z,97288.00
2024-02-08T01:11:43.155Z,97291.50
2024-02-08T01:12:46.299Z,97289.13
2024-02-08T01:13:48.636Z,97283.22
2024-02-08T01:14:51.685Z,97284.22
2024-02-08T01:15:55.083Z,97286.44
2024-02-08T01:16:57.366Z,97282.16
2024-02-08T01:17:59.955Z,97287.81
2024-02-08T01:19:04.086Z,97282.16
2024-02-08T01:20:08.085Z,97280.53
2024-02-08T01:21:11.412Z,97282.94
2024-02-08T01:22:19.689Z,97285.91
2024-02-08T01:23:23.933Z,97279.75
2024-02-08T01:24:26.542Z,97290.81
2024-02-08T01:25:28.783Z,97283.53
2024-02-08T01:26:32.425Z,97278.66
2024-02-08T01:27:34.671Z,97275.47
2024-02-08T01:28:37.080Z,97277.06
2024-02-08T01:29:39.435Z,97280.06
2024-02-08T01:30:41.682Z,97280.06
2024-02-08T01:31:44.563Z,97282.75
2024-02-08T01:32:49.522Z,97279.25
2024-02-08T01:33:51.962Z,97274.19
2024-02-08T01:34:55.307Z,97280.06
2024-02-08T01:36:00.640Z,97273.41
2024-02-08T01:37:04.877Z,97277.38
2024-02-08T01:38:08.291Z,97278.47
2024-02-08T01:39:14.198Z,97280.06
2024-02-08T01:40:19.550Z,97285.25
2024-02-08T01:41:22.930Z,97277.19
2024-02-08T01:42:25.541Z,97275.59
2024-02-08T01:43:32.948Z,97275.28
2024-02-08T01:44:35.210Z,97271.03
2024-02-08T01:45:39.715Z,97273.69
2024-02-08T01:46:42.491Z,97272.91
2024-02-08T01:47:48.918Z,97282.88
2024-02-08T01:48:51.794Z,97273.69
2024-02-08T01:49:54.549Z,97272.91
2024-02-08T01:51:02.088Z,97271.03
2024-02-08T01:52:05.342Z,97269.75
2024-02-08T01:53:15.199Z,97265.94
2024-02-08T01:54:20.545Z,97268.34
2024-02-08T01:55:23.058Z,97272.13
2024-02-08T01:56:25.402Z,97274.81
2024-02-08T01:57:28.828Z,97266.25
2024-02-08T01:58:33.918Z,97268.94
2024-02-08T01:59:36.326Z,97269.75
2024-02-08T02:00:39.585Z,97271.91
2024-02-08T02:01:48.266Z,97263.84
2024-02-08T02:02:54.996Z,97261.16
2024-02-08T02:03:57.425Z,97262.25
2024-02-08T02:04:59.944Z,97263.84
2024-02-08T02:06:03.103Z,97264.94
2024-02-08T02:07:05.701Z,97259.88
2024-02-08T02:08:09.438Z,97261.78
2024-02-08T02:09:24.006Z,97257.19
2024-02-08T02:10:33.538Z,97264.66
2024-02-08T02:11:52.698Z,97269.44
2024-02-08T02:12:55.122Z,97260.38
2024-02-08T02:13:59.332Z,97261.47
2024-02-08T02:15:05.247Z,97258.28
2024-02-08T02:16:07.892Z,97260.19
2024-02-08T02:17:16.462Z,97257.19
2024-02-08T02:18:19.790Z,97249.94
2024-02-08T02:19:22.075Z,97251.63
2024-02-08T02:20:25.636Z,97252.63
2024-02-08T02:21:28.338Z,97257.00
2024-02-08T02:22:33.204Z,97244.38
2024-02-08T02:23:35.610Z,97249.75
2024-02-08T02:24:41.414Z,97251.34
2024-02-08T02:25:44.164Z,97249.44
2024-02-08T02:26:47.122Z,97247.84
2024-02-08T02:27:54.440Z,97252.44
2024-02-08T02:28:57.162Z,97255.13
2024-02-08T02:30:00.414Z,97245.78
2024-02-08T02:31:07.139Z,97248.16
2024-02-08T02:32:22.126Z,97247.38
2024-02-08T02:33:26.583Z,97241.69
2024-02-08T02:34:33.117Z,97249.75
2024-02-08T02:35:35.822Z,97241.19
2024-02-08T02:36:39.380Z,97246.88
2024-02-08T02:37:41.646Z,97239.63
2024-02-08T02:38:48.445Z,97243.09
2024-02-08T02:39:50.791Z,97248.47
2024-02-08T02:40:53.152Z,97244.19
2024-02-08T02:41:55.562Z,97236.94
2024-02-08T02:42:59.208Z,97245.00
2024-02-08T02:44:01.531Z,97238.81
2024-02-08T02:45:04.224Z,97244.19
2024-02-08T02:46:11.317Z,97246.88
2024-02-08T02:47:13.880Z,97240.72
2024-02-08T02:48:16.241Z,97235.63
2024-02-08T02:49:19.049Z,97232.94
2024-02-08T02:50:22.857Z,97243.69
2024-02-08T02:51:27.568Z,97239.09
2024-02-08T02:52:29.891Z,97244.47
2024-02-08T02:53:32.197Z,97238.31
2024-02-08T02:54:38.023Z,97241.00
2024-02-08T02:55:41.716Z,97233.72
2024-02-08T02:56:48.626Z,97239.91
2024-02-08T02:57:51.098Z,97235.94
2024-02-08T02:58:53.492Z,97239.72
2024-02-08T03:00:00.709Z,97229.75
2024-02-08T03:01:06.708Z,97230.56
2024-02-08T03:02:29.241Z,97232.34
2024-02-08T03:03:38.815Z,97234.03
2024-02-08T03:04:41.581Z,97235.13
2024-02-08T03:05:47.129Z,97240.81
2024-02-08T03:06:54.133Z,97225.50
2024-02-08T03:07:56.481Z,97229.75
2024-02-08T03:08:59.216Z,97237.03
2024-02-08T03:10:01.609Z,97227.88
2024-02-08T03:11:04.396Z,97223.91
2024-02-08T03:12:11.010Z,97228.47
2024-02-08T03:13:13.470Z,97228.19
2024-02-08T03:14:23.429Z,97223.91
2024-02-08T03:15:25.916Z,97230.38
2024-02-08T03:16:30.199Z,97222.63
2024-02-08T03:17:33.731Z,97226.09
2024-02-08T03:18:39.706Z,97228.47
2024-02-08T03:19:42.024Z,97220.72
2024-02-08T03:20:46.449Z,97216.94
2024-02-08T03:21:50.599Z,97223.41
2024-02-08T03:22:53.308Z,97223.13
2024-02-08T03:23:57.577Z,97218.03
2024-02-08T03:25:00.185Z,97221.22
2024-02-08T03:26:05.941Z,97223.13
2024-02-08T03:27:14.490Z,97221.03
2024-02-08T03:28:18.759Z,97227.19
2024-02-08T03:29:23.045Z,97227.19
2024-02-08T03:30:32.078Z,97216.75
2024-02-08T03:31:34.656Z,97222.94
2024-02-08T03:32:37.069Z,97226.41
2024-02-08T03:33:39.395Z,97225.31
2024-02-08T03:34:41.712Z,97217.88
2024-02-08T03:35:47.141Z,97210.28
2024-02-08T03:36:50.388Z,97209.50
2024-02-08T03:37:56.692Z,97206.81
2024-02-08T03:39:00.828Z,97217.03
2024-02-08T03:40:04.827Z,97220.56
2024-02-08T03:41:07.443Z,97224.03
2024-02-08T03:42:12.401Z,97220.56
2024-02-08T03:43:17.094Z,97218.94
2024-02-08T03:44:22.417Z,97210.59
2024-02-08T03:45:28.732Z,97215.97
2024-02-08T03:46:32.953Z,97221.03
2024-02-08T03:47:35.267Z,97229.41
2024-02-08T03:48:38.717Z,97234.78
2024-02-08T03:49:51.020Z,97239.03
2024-02-08T03:50:53.410Z,97226.72
2024-02-08T03:51:57.156Z,97224.31
2024-02-08T03:53:00.701Z,97231.56
2024-02-08T03:54:04.661Z,97227.28
2024-02-08T03:55:10.116Z,97227.00
2024-02-08T03:56:16.794Z,97233.97
2024-02-08T03:57:20.268Z,97227.59
2024-02-08T03:58:24.635Z,97239.13
2024-02-08T03:59:28.045Z,97232.66
2024-02-08T04:00:30.375Z,97227.59
2024-02-08T04:01:32.800Z,97225.72
2024-02-08T04:02:36.957Z,97228.09
2024-02-08T04:03:54.579Z,97225.41
2024-02-08T04:05:07.647Z,97231.56
2024-02-08T04:06:28.013Z,97230.78
2024-02-08T04:07:48.827Z,97232.34
2024-02-08T04:09:09.626Z,97217.34
2024-02-08T04:10:51.371Z,97226.00
2024-02-08T04:12:12.655Z,97221.44
2024-02-08T04:13:33.536Z,97228.41
2024-02-08T04:14:55.667Z,97213.69
2024-02-08T04:16:16.828Z,97221.75
2024-02-08T04:17:37.918Z,97222.84
2024-02-08T04:18:59.059Z,97221.88
2024-02-08T04:20:20.235Z,97221.03
2024-02-08T04:21:41.228Z,97215.66
2024-02-08T04:23:02.349Z,97215.66
2024-02-08T04:24:23.333Z,97213.28
2024-02-08T04:25:44.396Z,97215.19
2024-02-08T04:27:05.414Z,97210.09
2024-02-08T04:28:27.364Z,97219.25
2024-02-08T04:29:48.573Z,97213.56
2024-02-08T04:31:09.643Z,97212.28
2024-02-08T04:32:30.790Z,97219.53
2024-02-08T04:33:51.807Z,97224.91
2024-02-08T04:35:12.614Z,97227.59
2024-02-08T04:36:33.401Z,97226.00
2024-02-08T04:37:54.493Z,97223.03
2024-02-08T04:39:15.553Z,97224.91
2024-02-08T04:40:36.613Z,97221.44
2024-02-08T04:42:01.181Z,97223.03
2024-02-08T04:43:22.228Z,97218.75
2024-02-08T04:44:43.306Z,97216.38
2024-02-08T04:46:04.334Z,97216.38
2024-02-08T04:47:25.431Z,97219.84
2024-02-08T04:48:46.479Z,97212.91
2024-02-08T04:50:07.324Z,97214.78
2024-02-08T04:51:29.038Z,97209.13
2024-02-08T04:52:49.963Z,97210.22
2024-02-08T04:53:53.729Z,97212.91
2024-02-08T04:54:58.778Z,97200.56
2024-02-08T04:56:01.226Z,97201.63
2024-02-08T04:57:04.653Z,97211.31
2024-02-08T04:58:27.388Z,97201.38
2024-02-08T04:59:29.363Z,97196.19
2024-02-08T05:00:53.823Z,97204.94
2024-02-08T05:01:58.812Z,97196.19
2024-02-08T05:03:03.261Z,97196.97
2024-02-08T05:04:06.114Z,97198.88
2024-02-08T05:05:12.837Z,97193.50
2024-02-08T05:06:20.437Z,97196.19
2024-02-08T05:07:24.520Z,97199.06
2024-02-08T05:08:27.359Z,97194.78
2024-02-08T05:09:29.681Z,97197.47
2024-02-08T05:10:32.243Z,97197.75
2024-02-08T05:11:37.705Z,97192.91
2024-02-08T05:12:40.390Z,97194.78
2024-02-08T05:13:44.963Z,97205.25
2024-02-08T05:14:47.319Z,97193.41
2024-02-08T05:15:51.613Z,97193.41
2024-02-08T05:16:56.918Z,97197.69
2024-02-08T05:17:59.274Z,97196.88
2024-02-08T05:19:01.720Z,97197.41
2024-02-08T05:20:06.276Z,97189.81
2024-02-08T05:21:10.819Z,97198.97
2024-02-08T05:22:14.490Z,97193.63
2024-02-08T05:23:16.992Z,97190.13
2024-02-08T05:24:19.313Z,97189.03
2024-02-08T05:25:25.541Z,97187.44
2024-02-08T05:26:32.901Z,97196.00
2024-02-08T05:27:35.215Z,97193.00
2024-02-08T05:28:39.171Z,97186.84
2024-02-08T05:29:43.818Z,97193.00
2024-02-08T05:30:50.218Z,97188.41
2024-02-08T05:31:52.696Z,97192.69
2024-02-08T05:33:02.357Z,97190.00
2024-02-08T05:34:07.249Z,97185.44
2024-02-08T05:35:21.604Z,97193.19
2024-02-08T05:36:24.755Z,97188.59
2024-02-08T05:37:30.636Z,97191.00
2024-02-08T05:38:38.686Z,97191.59
2024-02-08T05:39:41.006Z,97187.81
2024-02-08T05:40:44.762Z,97187.81
2024-02-08T05:41:48.857Z,97192.38
2024-02-08T05:42:52.690Z,97192.09
2024-02-08T05:43:55.072Z,97189.41
2024-02-08T05:45:17.256Z,97188.59
2024-02-08T05:46:26.090Z,97189.13
2024-02-08T05:47:28.712Z,97189.41
2024-02-08T05:48:34.621Z,97187.22
2024-02-08T05:49:37.260Z,97188.03
2024-02-08T05:50:39.677Z,97190.41
2024-02-08T05:51:50.583Z,97193.09
2024-02-08T05:52:52.971Z,97190.41
2024-02-08T05:53:55.238Z,97188.81
2024-02-08T05:54:59.525Z,97191.97
2024-02-08T05:56:01.901Z,97195.47
2024-02-08T05:57:07.925Z,97190.41
2024-02-08T05:58:17.762Z,97183.44
2024-02-08T05:59:20.069Z,97187.72
2024-02-08T06:00:37.216Z,97185.81
2024-02-08T06:01:48.133Z,97192.78
2024-02-08T06:02:50.754Z,97187.72
2024-02-08T06:04:01.378Z,97185.50
2024-02-08T06:05:10.787Z,97188.19
2024-02-08T06:06:18.263Z,97194.06
2024-02-08T06:07:21.635Z,97189.78
2024-02-08T06:08:27.284Z,97190.88
2024-02-08T06:09:48.147Z,97183.63
2024-02-08T06:10:53.677Z,97185.50
2024-02-08T06:12:09.794Z,97190.56
2024-02-08T06:13:16.014Z,97189.00
2024-02-08T06:14:24.273Z,97187.41
2024-02-08T06:15:34.104Z,97184.41
2024-02-08T06:16:47.927Z,97193.25
2024-02-08T06:17:58.984Z,97187.09
2024-02-08T06:19:06.503Z,97190.56
2024-02-08T06:20:11.256Z,97195.16
2024-02-08T06:21:14.850Z,97190.88
2024-02-08T06:22:21.521Z,97183.94
2024-02-08T06:23:28.390Z,97194.06
2024-02-08T06:24:33.862Z,97191.38
2024-02-08T06:25:37.679Z,97192.47
2024-02-08T06:26:41.190Z,97196.25
2024-02-08T06:27:43.471Z,97193.56
2024-02-08T06:28:49.336Z,97189.16
2024-02-08T06:29:51.931Z,97202.13
2024-02-08T06:30:54.496Z,97195.16
2024-02-08T06:32:09.999Z,97202.13
2024-02-08T06:33:26.363Z,97186.00
2024-02-08T06:34:43.697Z,97190.75
2024-02-08T06:35:46.578Z,97193.44
2024-02-08T06:37:17.373Z,97191.84
2024-02-08T06:38:40.390Z,97190.75
2024-02-08T06:39:46.187Z,97188.59
2024-02-08T06:40:51.403Z,97196.13
2024-02-08T06:41:54.662Z,97188.38
2024-02-08T06:42:57.174Z,97194.53
2024-02-08T06:44:19.415Z,97189.78
2024-02-08T06:45:31.128Z,97189.16
2024-02-08T06:46:57.942Z,97184.91
2024-02-08T06:48:00.983Z,97198.03
2024-02-08T06:49:22.341Z,97190.28
2024-02-08T06:50:43.256Z,97190.75
2024-02-08T06:52:04.334Z,97187.59
2024-02-08T06:53:25.283Z,97188.38
2024-02-08T06:54:46.218Z,97186.78
2024-02-08T06:56:07.170Z,97182.22
2024-02-08T06:57:28.075Z,97185.22
2024-02-08T06:58:49.239Z,97181.72
2024-02-08T07:00:10.204Z,97182.81
2024-02-08T07:01:31.195Z,97182.81
2024-02-08T07:02:52.158Z,97191.38
2024-02-08T07:04:13.353Z,97190.09
2024-02-08T07:05:34.257Z,97180.16
2024-02-08T07:06:55.355Z,97188.19
2024-02-08T07:08:16.256Z,97188.19
2024-02-08T07:09:37.121Z,97183.94
2024-02-08T07:10:58.144Z,97188.19
2024-02-08T07:12:19.307Z,97178.56
2024-02-08T07:13:40.376Z,97174.78
2024-02-08T07:15:01.487Z,97176.34
2024-02-08T07:16:22.570Z,97179.03
2024-02-08T07:17:43.613Z,97172.88
2024-02-08T07:19:07.518Z,97179.03
2024-02-08T07:20:30.579Z,97175.25
2024-02-08T07:21:51.413Z,97181.41
2024-02-08T07:23:12.307Z,97184.41
2024-02-08T07:24:37.797Z,97184.09
2024-02-08T07:25:58.658Z,97180.00
2024-02-08T07:27:19.546Z,97185.38
2024-02-08T07:28:40.549Z,97187.28
2024-02-08T07:30:02.134Z,97190.75
2024-02-08T07:31:23.340Z,97200.44
2024-02-08T07:32:44.400Z,97194.75
2024-02-08T07:34:05.580Z,97196.03
2024-02-08T07:35:26.319Z,97197.44
2024-02-08T07:36:47.494Z,97195.53
2024-02-08T07:37:49.754Z,97189.38
2024-02-08T07:38:55.029Z,97193.97
2024-02-08T07:40:03.971Z,97196.34
2024-02-08T07:41:06.358Z,97201.72
2024-02-08T07:42:21.269Z,97198.72
2024-02-08T07:43:35.959Z,97201.09
2024-02-08T07:44:40.246Z,97198.09
2024-02-08T07:45:48.169Z,97197.00
2024-02-08T07:46:55.956Z,97197.22
2024-02-08T07:48:09.861Z,97197.50
2024-02-08T07:49:16.395Z,97192.63
2024-02-08T07:50:26.009Z,97196.09
2024-02-08T07:51:30.138Z,97195.81
2024-02-08T07:52:46.908Z,97198.97
2024-02-08T07:53:53.285Z,97193.28
2024-02-08T07:55:16.034Z,97192.97
2024-02-08T07:56:25.365Z,97205.03
2024-02-08T07:57:32.759Z,97199.34
2024-02-08T07:58:38.215Z,97195.06
2024-02-08T07:59:44.204Z,97202.84
2024-02-08T08:00:46.638Z,97199.22
2024-02-08T08:01:55.074Z,97201.91
2024-02-08T08:02:57.549Z,97192.25
2024-02-08T08:04:03.529Z,97193.53
2024-02-08T08:05:16.311Z,97193.22
2024-02-08T08:06:18.843Z,97191.06
2024-02-08T08:07:24.890Z,97187.56
2024-02-08T08:08:29.746Z,97189.16
2024-02-08T08:09:32.086Z,97183.97
2024-02-08T08:10:39.543Z,97191.22
2024-02-08T08:11:46.502Z,97184.75
2024-02-08T08:12:49.856Z,97185.53
2024-02-08T08:13:55.102Z,97188.22
2024-02-08T08:15:03.105Z,97185.75
2024-02-08T08:16:24.387Z,97191.41
2024-02-08T08:17:26.754Z,97189.25
2024-02-08T08:18:31.302Z,97194.81
2024-02-08T08:19:40.561Z,97195.28
2024-02-08T08:20:58.453Z,97189.59
2024-02-08T08:22:19.954Z,97187.38
2024-02-08T08:23:28.668Z,97185.22
2024-02-08T08:24:31.522Z,97193.28
2024-02-08T08:25:54.127Z,97187.91
2024-02-08T08:27:29.268Z,97189.03
2024-02-08T08:28:32.395Z,97189.84
2024-02-08T08:29:45.339Z,97192.84
2024-02-08T08:30:55.299Z,97189.84
2024-02-08T08:32:17.777Z,97190.63
2024-02-08T08:33:40.112Z,97181.16
2024-02-08T08:35:01.147Z,97185.94
2024-02-08T08:36:21.293Z,97184.03
2024-02-08T08:37:45.570Z,97178.66
2024-02-08T08:38:47.872Z,97175.66
2024-02-08T08:40:22.021Z,97175.34
2024-02-08T08:41:25.644Z,97173.44
2024-02-08T08:42:30.102Z,97176.91
2024-02-08T08:43:35.955Z,97175.34
2024-02-08T08:44:38.323Z,97173.13
2024-02-08T08:45:42.294Z,97172.66
2024-02-08T08:46:46.054Z,97174.22
2024-02-08T08:47:52.949Z,97171.53
2024-02-08T08:48:56.384Z,97176.59
2024-02-08T08:49:59.360Z,97173.13
2024-02-08T08:51:12.633Z,97173.91
2024-02-08T08:52:24.768Z,97173.31
2024-02-08T08:53:29.206Z,97169.34
2024-02-08T08:54:34.205Z,97163.69
2024-02-08T08:55:41.074Z,97152.59
2024-02-08T08:56:43.892Z,97160.66
2024-02-08T08:57:48.847Z,97163.03
2024-02-08T08:58:51.826Z,97166.06
2024-02-08T08:59:57.447Z,97169.22
2024-02-08T09:01:13.110Z,97170.31
2024-02-08T09:02:16.018Z,97167.00
2024-02-08T09:03:28.101Z,97171.59
2024-02-08T09:04:34.409Z,97174.28
2024-02-08T09:05:38.055Z,97165.13
2024-02-08T09:06:43.802Z,97172.38
2024-02-08T09:07:46.608Z,97168.59
2024-02-08T09:08:58.379Z,97177.75
2024-02-08T09:10:04.107Z,97170.19
2024-02-08T09:11:07.280Z,97174.75
2024-02-08T09:12:12.548Z,97172.38
2024-02-08T09:13:19.829Z,97174.75
2024-02-08T09:14:22.681Z,97172.06
2024-02-08T09:15:29.489Z,97181.25
2024-02-08T09:16:37.897Z,97169.88
2024-02-08T09:17:53.180Z,97170.97
2024-02-08T09:19:00.441Z,97170.38
2024-02-08T09:20:21.028Z,97167.16
2024-02-08T09:21:27.250Z,97166.88
2024-02-08T09:22:35.687Z,97161.19
2024-02-08T09:23:39.658Z,97171.47
2024-02-08T09:24:45.791Z,97167.97
2024-02-08T09:25:48.785Z,97167.69
2024-02-08T09:27:12.997Z,97168.28
2024-02-08T09:28:26.178Z,97168.47
2024-02-08T09:29:40.005Z,97171.16
2024-02-08T09:30:53.827Z,97161.19
2024-02-08T09:32:00.387Z,97156.94
2024-02-08T09:33:04.890Z,97170.84
2024-02-08T09:34:16.806Z,97161.19
2024-02-08T09:35:20.014Z,97161.50
2024-02-08T09:36:22.802Z,97166.56
2024-02-08T09:37:25.131Z,97162.00
2024-02-08T09:38:29.551Z,97158.19
2024-02-08T09:39:51.843Z,97165.47
2024-02-08T09:40:54.556Z,97152.03
2024-02-08T09:41:56.856Z,97167.38
2024-02-08T09:42:59.424Z,97160.09
2024-02-08T09:44:10.524Z,97159.31
2024-02-08T09:45:35.853Z,97160.09
2024-02-08T09:46:39.598Z,97164.38
2024-02-08T09:47:52.968Z,97162.47
2024-02-08T09:49:15.110Z,97157.09
2024-02-08T09:50:32.449Z,97150.59
2024-02-08T09:51:36.656Z,97157.88
2024-02-08T09:52:50.848Z,97160.88
2024-02-08T09:53:55.442Z,97161.69
2024-02-08T09:55:07.329Z,97160.09
2024-02-08T09:56:22.498Z,97159.78
2024-02-08T09:57:32.509Z,97155.97
2024-02-08T09:58:39.320Z,97152.81
2024-02-08T10:00:01.359Z,97156.28
2024-02-08T10:01:23.002Z,97159.78
2024-02-08T10:02:34.167Z,97161.69
2024-02-08T10:03:38.960Z,97163.25
2024-02-08T10:04:44.110Z,97161.69
2024-02-08T10:05:52.448Z,97153.13
2024-02-08T10:06:58.053Z,97158.50
2024-02-08T10:08:07.545Z,97156.28
2024-02-08T10:09:31.024Z,97154.41
2024-02-08T10:11:00.100Z,97155.66
2024-02-08T10:12:08.726Z,97161.84
2024-02-08T10:13:28.129Z,97158.03
2024-02-08T10:14:34.354Z,97153.28
2024-02-08T10:15:45.637Z,97152.50
2024-02-08T10:16:51.676Z,97153.59
2024-02-08T10:18:10.291Z,97155.66
2024-02-08T10:19:30.370Z,97152.81
2024-02-08T10:20:33.364Z,97150.91
2024-02-08T10:21:37.641Z,97152.34
2024-02-08T10:22:54.868Z,97146.16
2024-02-08T10:24:14.050Z,97150.75
2024-02-08T10:25:36.221Z,97150.13
2024-02-08T10:26:46.989Z,97149.34
2024-02-08T10:27:56.897Z,97151.41
2024-02-08T10:29:08.544Z,97144.44
2024-02-08T10:30:12.208Z,97143.94
2024-02-08T10:31:23.895Z,97147.75
2024-02-08T10:32:30.525Z,97137.00
2024-02-08T10:33:40.206Z,97142.06
2024-02-08T10:34:44.947Z,97140.00
2024-02-08T10:35:48.904Z,97142.38
2024-02-08T10:36:51.524Z,97142.69
2024-02-08T10:38:09.038Z,97138.38
2024-02-08T10:39:40.858Z,97132.41
2024-02-08T10:40:48.247Z,97124.34
2024-02-08T10:42:00.581Z,97127.81
2024-02-08T10:43:18.280Z,97129.72
2024-02-08T10:44:25.432Z,97122.91
2024-02-08T10:45:33.712Z,97125.44
2024-02-08T10:46:43.402Z,97130.81
2024-02-08T10:47:49.526Z,97117.69
2024-02-08T10:48:52.919Z,97112.31
2024-02-08T10:49:56.019Z,97113.09
2024-02-08T10:51:03.558Z,97110.41
2024-02-08T10:52:06.653Z,97110.41
2024-02-08T10:53:17.409Z,97120.06
2024-02-08T10:54:24.491Z,97106.94
2024-02-08T10:55:38.400Z,97106.94
2024-02-08T10:57:07.723Z,97110.69
2024-02-08T10:58:12.053Z,97102.34
2024-02-08T10:59:53.191Z,97109.31
2024-02-08T11:01:14.324Z,97104.72
2024-02-08T11:02:46.450Z,97095.84
2024-02-08T11:03:54.677Z,97096.97
2024-02-08T11:05:14.160Z,97096.97
2024-02-08T11:06:36.984Z,97090.78
2024-02-08T11:07:46.400Z,97091.88
2024-02-08T11:08:52.146Z,97089.19
2024-02-08T11:09:54.647Z,97091.09
2024-02-08T11:11:04.860Z,97089.19
2024-02-08T11:12:18.398Z,97085.69
2024-02-08T11:13:30.695Z,97086.50
2024-02-08T11:14:52.357Z,97089.69
2024-02-08T11:15:55.139Z,97082.72
2024-02-08T11:17:05.551Z,97080.03
2024-02-08T11:18:30.471Z,97077.63
2024-02-08T11:19:36.034Z,97065.16
2024-02-08T11:20:44.638Z,97069.28
2024-02-08T11:21:50.698Z,97076.25
2024-02-08T11:22:58.917Z,97073.84
2024-02-08T11:24:02.538Z,97071.47
2024-02-08T11:25:28.984Z,97070.88
2024-02-08T11:26:32.966Z,97060.59
2024-02-08T11:27:36.056Z,97061.38
2024-02-08T11:28:55.083Z,97061.06
2024-02-08T11:29:58.280Z,97053.78
2024-02-08T11:31:07.280Z,97042.69
2024-02-08T11:32:18.575Z,97055.50
2024-02-08T11:33:34.602Z,97052.22
2024-02-08T11:34:46.151Z,97041.59
2024-02-08T11:35:57.985Z,97044.28
2024-02-08T11:37:01.363Z,97041.28
2024-02-08T11:38:18.204Z,97038.47
2024-02-08T11:39:28.106Z,97032.13
2024-02-08T11:40:37.291Z,97041.28
2024-02-08T11:41:44.019Z,97032.91
2024-02-08T11:42:46.469Z,97034.31
2024-02-08T11:44:03.618Z,97025.94
2024-02-08T11:45:10.370Z,97024.06
2024-02-08T11:46:21.503Z,97023.75
2024-02-08T11:47:24.873Z,97024.06
2024-02-08T11:48:32.777Z,97019.94
2024-02-08T11:49:37.243Z,97017.25
2024-02-08T11:50:40.988Z,97022.63
2024-02-08T11:51:46.747Z,97019.16
2024-02-08T11:52:59.561Z,97012.03
2024-02-08T11:54:10.191Z,97009.50
2024-02-08T11:55:15.645Z,97015.81
2024-02-08T11:56:21.567Z,97009.66
2024-02-08T11:57:24.184Z,96996.53
2024-02-08T11:58:31.252Z,97018.84
2024-02-08T11:59:39.518Z,97004.28
2024-02-08T12:00:49.978Z,97009.66
2024-02-08T12:01:54.197Z,97011.25
2024-02-08T12:02:59.741Z,97011.56
2024-02-08T12:04:03.449Z,97013.13
2024-02-08T12:05:06.256Z,97006.19
2024-02-08T12:06:23.594Z,97007.13
2024-02-08T12:07:26.096Z,97004.28
2024-02-08T12:08:37.125Z,97003.50
2024-02-08T12:09:45.892Z,97000.81
2024-02-08T12:10:52.038Z,96997.47
2024-02-08T12:11:56.691Z,96998.91
2024-02-08T12:13:01.149Z,96999.22
2024-02-08T12:14:15.630Z,97002.69
2024-02-08T12:15:27.409Z,97000.47
2024-02-08T12:16:30.986Z,96993.53
2024-02-08T12:17:34.667Z,96997.47
2024-02-08T12:18:37.677Z,97002.38
2024-02-08T12:19:40.437Z,96999.38
2024-02-08T12:20:45.016Z,96994.00
2024-02-08T12:22:06.699Z,96990.09
2024-02-08T12:23:09.102Z,96982.91
2024-02-08T12:24:16.735Z,96990.19
2024-02-08T12:25:19.227Z,96979.75
2024-02-08T12:26:24.801Z,96982.75
2024-02-08T12:27:30.353Z,96980.84
2024-02-08T12:28:36.490Z,96981.66
2024-02-08T12:29:43.347Z,96975.47
2024-02-08T12:30:45.851Z,96975.16
2024-02-08T12:31:49.435Z,96977.38
2024-02-08T12:32:53.065Z,96976.91
2024-02-08T12:33:57.086Z,96975.16
2024-02-08T12:35:14.271Z,96972.00
2024-02-08T12:36:19.663Z,96980.22
2024-02-08T12:37:29.388Z,96975.16
2024-02-08T12:38:32.154Z,96969.78
2024-02-08T12:39:44.347Z,96978.31
2024-02-08T12:40:48.473Z,96975.94
2024-02-08T12:41:54.792Z,96978.63
2024-02-08T12:43:09.454Z,96969.47
2024-02-08T12:44:14.553Z,96972.78
2024-02-08T12:45:18.988Z,96983.22
2024-02-08T12:46:22.080Z,96982.44
2024-02-08T12:47:24.641Z,96985.44
2024-02-08T12:48:30.311Z,96980.06
2024-02-08T12:49:34.995Z,96978.50
2024-02-08T12:50:39.416Z,96973.44
2024-02-08T12:51:42.474Z,96971.53
2024-02-08T12:52:44.979Z,96979.28
2024-02-08T12:53:50.572Z,96975.00
2024-02-08T12:54:56.557Z,96968.19
2024-02-08T12:56:12.503Z,96972.16
2024-02-08T12:57:16.795Z,96974.69
2024-02-08T12:58:19.973Z,96962.34
2024-02-08T12:59:24.615Z,96963.47
2024-02-08T13:00:27.164Z,96961.56
2024-02-08T13:01:40.950Z,96957.13
2024-02-08T13:02:43.406Z,96955.06
2024-02-08T13:03:46.951Z,96956.19
2024-02-08T13:04:55.255Z,96960.78
2024-02-08T13:05:57.592Z,96959.19
2024-02-08T13:06:59.900Z,96950.00
2024-02-08T13:08:02.296Z,96939.25
2024-02-08T13:09:27.247Z,96958.06
2024-02-08T13:10:34.584Z,96958.56
2024-02-08T13:11:38.455Z,96947.00
2024-02-08T13:12:41.080Z,96948.09
2024-02-08T13:13:43.831Z,96955.38
2024-02-08T13:14:52.413Z,96947.31
2024-02-08T13:16:00.541Z,96944.94
2024-02-08T13:17:05.913Z,96958.88
2024-02-08T13:18:10.939Z,96951.44
2024-02-08T13:19:20.659Z,96953.03
2024-02-08T13:20:24.936Z,96944.94
2024-02-08T13:21:27.455Z,96947.00
2024-02-08T13:22:32.503Z,96943.84
2024-02-08T13:23:36.216Z,96951.59